createdAt,value
2018-02-08T00:00:25.119Z,62.70
2018-02-08T00:01:25.060Z,65.30
2018-02-08T00:02:24.996Z,64.70
2018-02-08T00:03:24.932Z,59.30
2018-02-08T00:04:24.872Z,58.40
2018-02-08T00:05:24.808Z,58.80
2018-02-08T00:06:24.749Z,63.00
2018-02-08T00:07:24.685Z,61.30
2018-02-08T00:08:24.624Z,56.60
2018-02-08T00:09:24.563Z,57.60
2018-02-08T00:10:24.498Z,56.10
2018-02-08T00:11:24.444Z,60.30
2018-02-08T00:12:24.376Z,60.40
2018-02-08T00:13:24.313Z,58.80
2018-02-08T00:14:24.251Z,59.60
2018-02-08T00:15:24.216Z,57.40
2018-02-08T00:16:24.129Z,57.90
2018-02-08T00:17:24.069Z,60.40
2018-02-08T00:18:24.003Z,60.30
2018-02-08T00:19:23.940Z,59.00
2018-02-08T00:20:23.877Z,58.50
2018-02-08T00:21:23.821Z,62.60
2018-02-08T00:22:23.755Z,64.10
2018-02-08T00:23:23.694Z,61.10
2018-02-08T00:24:23.629Z,59.10
2018-02-08T00:25:23.567Z,57.70
2018-02-08T00:26:23.505Z,56.30
2018-02-08T00:27:23.444Z,56.20
2018-02-08T00:28:23.382Z,55.00
2018-02-08T00:29:23.321Z,52.30
2018-02-08T00:30:23.259Z,57.70
2018-02-08T00:31:23.196Z,54.50
2018-02-08T00:32:23.135Z,53.60
2018-02-08T00:33:23.072Z,54.50
2018-02-08T00:34:23.012Z,55.10
2018-02-08T00:35:22.948Z,55.00
2018-02-08T00:36:22.886Z,55.50
2018-02-08T00:37:22.824Z,57.10
2018-02-08T00:38:22.765Z,54.40
2018-02-08T00:39:22.701Z,56.20
2018-02-08T00:40:22.639Z,55.50
2018-02-08T00:41:22.576Z,59.70
2018-02-08T00:42:22.515Z,60.70
2018-02-08T00:43:22.453Z,60.40
2018-02-08T00:44:22.393Z,55.90
2018-02-08T00:45:22.330Z,59.60
2018-02-08T00:46:22.269Z,60.30
2018-02-08T00:47:22.206Z,58.90
2018-02-08T00:48:22.143Z,59.40
2018-02-08T00:49:22.083Z,58.80
2018-02-08T00:50:22.021Z,57.00
2018-02-08T00:51:21.959Z,60.50
2018-02-08T00:52:21.897Z,59.10
2018-02-08T00:53:21.834Z,58.70
2018-02-08T00:54:21.772Z,61.10
2018-02-08T00:55:21.715Z,65.00
2018-02-08T00:56:21.648Z,62.30
2018-02-08T00:57:21.587Z,60.50
2018-02-08T00:58:21.524Z,59.80
2018-02-08T00:59:21.462Z,69.00
2018-02-08T01:00:21.404Z,61.50
2018-02-08T01:01:21.367Z,64.90
2018-02-08T01:02:21.277Z,64.30
2018-02-08T01:03:21.215Z,66.10
2018-02-08T01:04:21.154Z,63.20
2018-02-08T01:05:21.091Z,66.90
2018-02-08T01:06:21.028Z,66.50
2018-02-08T01:07:20.965Z,71.90
2018-02-08T01:08:20.904Z,73.20
2018-02-08T01:09:20.841Z,76.50
2018-02-08T01:10:20.780Z,71.60
2018-02-08T01:11:20.716Z,67.90
2018-02-08T01:12:20.656Z,72.40
2018-02-08T01:13:20.595Z,70.50
2018-02-08T01:14:20.531Z,71.40
2018-02-08T01:15:20.468Z,70.20
2018-02-08T01:16:20.406Z,75.00
2018-02-08T01:17:20.346Z,70.90
2018-02-08T01:18:20.283Z,67.40
2018-02-08T01:19:20.221Z,69.80
2018-02-08T01:20:20.159Z,64.90
2018-02-08T01:21:20.097Z,68.50
2018-02-08T01:22:20.035Z,67.60
2018-02-08T01:23:19.971Z,65.60
2018-02-08T01:24:19.911Z,70.30
2018-02-08T01:25:19.850Z,71.60
2018-02-08T01:26:19.785Z,72.90
2018-02-08T01:27:19.724Z,71.90
2018-02-08T01:28:19.663Z,70.20
2018-02-08T01:29:19.599Z,70.20
2018-02-08T01:30:19.537Z,71.60
2018-02-08T01:31:19.475Z,65.80
2018-02-08T01:32:19.413Z,66.40
2018-02-08T01:33:19.350Z,64.30
2018-02-08T01:34:19.289Z,61.10
2018-02-08T01:35:19.225Z,65.00
2018-02-08T01:36:19.165Z,66.80
2018-02-08T01:37:19.101Z,66.70
2018-02-08T01:38:19.039Z,65.50
2018-02-08T01:39:18.977Z,65.50
2018-02-08T01:40:18.916Z,59.50
2018-02-08T01:41:18.853Z,66.40
2018-02-08T01:42:18.790Z,58.00
2018-02-08T01:43:18.728Z,58.80
2018-02-08T01:44:18.671Z,58.80
2018-02-08T01:45:18.605Z,59.40
2018-02-08T01:46:18.544Z,63.20
2018-02-08T01:47:18.479Z,63.60
2018-02-08T01:48:18.418Z,61.90
2018-02-08T01:49:18.356Z,54.80
2018-02-08T01:50:18.294Z,59.80
2018-02-08T01:51:18.230Z,63.60
2018-02-08T01:52:18.174Z,64.60
2018-02-08T01:53:18.106Z,62.10
2018-02-08T01:54:18.046Z,59.50
2018-02-08T01:55:17.980Z,60.80
2018-02-08T01:56:17.920Z,58.50
2018-02-08T01:57:17.863Z,64.50
2018-02-08T01:58:17.799Z,62.80
2018-02-08T01:59:17.735Z,67.10
2018-02-08T02:00:17.670Z,62.20
2018-02-08T02:01:17.610Z,63.20
2018-02-08T02:02:17.547Z,62.30
2018-02-08T02:03:17.484Z,64.20
2018-02-08T02:04:17.425Z,61.60
2018-02-08T02:05:17.359Z,65.70
2018-02-08T02:06:17.297Z,66.00
2018-02-08T02:07:17.234Z,69.70
2018-02-08T02:08:17.172Z,64.40
2018-02-08T02:09:17.110Z,64.50
2018-02-08T02:10:17.048Z,65.20
2018-02-08T02:11:16.984Z,61.00
2018-02-08T02:12:16.927Z,65.00
2018-02-08T02:13:16.860Z,62.10
2018-02-08T02:14:16.798Z,63.70
2018-02-08T02:15:16.737Z,60.50
2018-02-08T02:16:16.673Z,63.20
2018-02-08T02:17:16.612Z,67.40
2018-02-08T02:18:16.548Z,63.50
2018-02-08T02:19:16.487Z,63.80
2018-02-08T02:20:16.425Z,63.70
2018-02-08T02:21:16.362Z,64.10
2018-02-08T02:22:16.302Z,65.80
2018-02-08T02:23:16.237Z,65.00
2018-02-08T02:24:16.176Z,65.50
2018-02-08T02:25:16.115Z,63.40
2018-02-08T02:26:16.051Z,63.10
2018-02-08T02:27:15.993Z,63.40
2018-02-08T02:28:15.925Z,60.10
2018-02-08T02:29:15.864Z,57.60
2018-02-08T02:30:15.805Z,59.60
2018-02-08T02:31:15.737Z,61.90
2018-02-08T02:32:15.676Z,62.30
2018-02-08T02:33:15.613Z,67.70
2018-02-08T02:34:15.552Z,63.10
2018-02-08T02:35:15.488Z,62.40
2018-02-08T02:36:15.425Z,66.10
2018-02-08T02:37:15.365Z,61.20
2018-02-08T02:38:15.312Z,62.50
2018-02-08T02:39:15.240Z,60.90
2018-02-08T02:40:15.176Z,59.80
2018-02-08T02:41:15.115Z,66.10
2018-02-08T02:42:15.053Z,60.90
2018-02-08T02:43:14.991Z,64.10
2018-02-08T02:44:14.927Z,61.60
2018-02-08T02:45:14.867Z,63.70
2018-02-08T02:46:14.803Z,58.00
2018-02-08T02:47:14.746Z,59.80
2018-02-08T02:48:14.681Z,59.70
2018-02-08T02:49:14.619Z,58.50
2018-02-08T02:50:14.554Z,64.70
2018-02-08T02:51:14.491Z,63.90
2018-02-08T02:52:14.430Z,62.60
2018-02-08T02:53:14.367Z,67.20
2018-02-08T02:54:14.309Z,66.70
2018-02-08T02:55:14.241Z,62.30
2018-02-08T02:56:14.180Z,68.10
2018-02-08T02:57:14.116Z,66.00
2018-02-08T02:58:14.056Z,62.80
2018-02-08T02:59:13.991Z,61.60
2018-02-08T03:00:13.929Z,64.10
2018-02-08T03:01:13.869Z,59.10
2018-02-08T03:02:13.806Z,61.10
2018-02-08T03:03:13.743Z,59.80
2018-02-08T03:04:13.682Z,62.30
2018-02-08T03:05:13.618Z,60.60
2018-02-08T03:06:13.554Z,61.50
2018-02-08T03:07:13.494Z,65.50
2018-02-08T03:08:13.432Z,65.60
2018-02-08T03:09:13.368Z,62.10
2018-02-08T03:10:13.306Z,62.70
2018-02-08T03:11:13.242Z,65.50
2018-02-08T03:12:13.180Z,62.10
2018-02-08T03:13:13.118Z,67.60
2018-02-08T03:14:13.054Z,63.00
2018-02-08T03:15:12.992Z,62.80
2018-02-08T03:16:12.930Z,63.10
2018-02-08T03:17:12.868Z,67.70
2018-02-08T03:18:12.805Z,66.60
2018-02-08T03:19:12.744Z,63.80
2018-02-08T03:20:12.681Z,59.50
2018-02-08T03:21:12.618Z,67.20
2018-02-08T03:22:12.554Z,66.10
2018-02-08T03:23:12.493Z,67.80
2018-02-08T03:24:12.430Z,65.50
2018-02-08T03:25:12.366Z,65.10
2018-02-08T03:26:12.305Z,63.60
2018-02-08T03:27:12.242Z,67.30
2018-02-08T03:28:12.183Z,65.40
2018-02-08T03:29:12.117Z,66.60
2018-02-08T03:30:12.056Z,62.00
2018-02-08T03:31:12.003Z,65.60
2018-02-08T03:32:11.930Z,64.10
2018-02-08T03:33:11.872Z,62.00
2018-02-08T03:34:11.807Z,59.10
2018-02-08T03:35:11.741Z,62.60
2018-02-08T03:36:11.680Z,61.30
2018-02-08T03:37:11.616Z,61.00
2018-02-08T03:38:11.556Z,64.50
2018-02-08T03:39:11.540Z,61.60
2018-02-08T03:40:11.430Z,61.60
2018-02-08T03:41:11.368Z,62.40
2018-02-08T03:42:11.306Z,63.00
2018-02-08T03:43:11.245Z,64.90
2018-02-08T03:44:11.183Z,63.90
2018-02-08T03:45:11.121Z,63.50
2018-02-08T03:46:11.054Z,59.00
2018-02-08T03:47:10.993Z,61.90
2018-02-08T03:48:10.929Z,60.40
2018-02-08T03:49:10.872Z,64.40
2018-02-08T03:50:10.806Z,61.30
2018-02-08T03:51:10.743Z,62.20
2018-02-08T03:52:10.679Z,62.90
2018-02-08T03:53:10.617Z,60.60
2018-02-08T03:54:10.554Z,65.20
2018-02-08T03:55:10.492Z,60.40
2018-02-08T03:56:10.430Z,59.60
2018-02-08T03:57:10.366Z,60.60
2018-02-08T03:58:10.306Z,62.60
2018-02-08T03:59:10.240Z,63.10
2018-02-08T04:00:10.179Z,61.50
2018-02-08T04:01:10.117Z,58.80
2018-02-08T04:02:10.056Z,60.70
2018-02-08T04:03:09.991Z,59.90
2018-02-08T04:04:09.929Z,60.70
2018-02-08T04:05:09.871Z,62.80
2018-02-08T04:06:09.804Z,58.30
2018-02-08T04:07:09.744Z,59.70
2018-02-08T04:08:09.682Z,64.40
2018-02-08T04:09:09.617Z,60.90
2018-02-08T04:10:09.555Z,62.10
2018-02-08T04:11:09.492Z,60.10
2018-02-08T04:12:09.430Z,59.70
2018-02-08T04:13:09.368Z,57.60
2018-02-08T04:14:09.305Z,62.90
2018-02-08T04:15:09.243Z,61.20
2018-02-08T04:16:09.180Z,61.70
2018-02-08T04:17:09.117Z,60.90
2018-02-08T04:18:09.056Z,58.30
2018-02-08T04:19:08.995Z,61.00
2018-02-08T04:20:08.932Z,59.30
2018-02-08T04:21:08.866Z,58.80
2018-02-08T04:22:08.810Z,61.30
2018-02-08T04:23:08.742Z,61.40
2018-02-08T04:24:08.680Z,61.20
2018-02-08T04:25:08.617Z,62.10
2018-02-08T04:26:08.555Z,59.20
2018-02-08T04:27:08.493Z,59.90
2018-02-08T04:28:08.430Z,61.20
2018-02-08T04:29:08.368Z,63.10
2018-02-08T04:30:08.306Z,60.20
2018-02-08T04:31:08.244Z,58.20
2018-02-08T04:32:08.181Z,61.40
2018-02-08T04:33:08.117Z,58.50
2018-02-08T04:34:08.057Z,61.10
2018-02-08T04:35:07.993Z,62.40
2018-02-08T04:36:07.931Z,60.50
2018-02-08T04:37:07.868Z,64.60
2018-02-08T04:38:07.806Z,62.50
2018-02-08T04:39:07.743Z,60.30
2018-02-08T04:40:07.680Z,60.80
2018-02-08T04:41:07.627Z,61.70
2018-02-08T04:42:07.558Z,63.20
2018-02-08T04:43:07.491Z,61.20
2018-02-08T04:44:07.431Z,62.10
2018-02-08T04:45:07.368Z,59.90
2018-02-08T04:46:07.307Z,61.90
2018-02-08T04:47:07.244Z,59.50
2018-02-08T04:48:07.181Z,62.50
2018-02-08T04:49:07.119Z,62.80
2018-02-08T04:50:07.056Z,59.30
2018-02-08T04:51:06.994Z,60.40
2018-02-08T04:52:06.934Z,62.80
2018-02-08T04:53:06.868Z,61.50
2018-02-08T04:54:06.806Z,59.70
2018-02-08T04:55:06.745Z,61.70
2018-02-08T04:56:06.681Z,66.40
2018-02-08T04:57:06.620Z,59.30
2018-02-08T04:58:06.558Z,64.70
2018-02-08T04:59:06.494Z,69.40
2018-02-08T05:00:06.433Z,64.70
2018-02-08T05:01:06.378Z,62.10
2018-02-08T05:02:06.312Z,64.70
2018-02-08T05:03:06.246Z,60.40
2018-02-08T05:04:06.183Z,61.50
2018-02-08T05:05:06.122Z,59.70
2018-02-08T05:06:06.062Z,64.30
2018-02-08T05:07:05.996Z,61.80
2018-02-08T05:08:05.936Z,62.40
2018-02-08T05:09:05.874Z,59.80
2018-02-08T05:10:05.810Z,60.30
2018-02-08T05:11:05.746Z,63.30
2018-02-08T05:12:05.685Z,62.20
2018-02-08T05:13:05.626Z,62.30
2018-02-08T05:14:05.564Z,66.20
2018-02-08T05:15:05.498Z,63.30
2018-02-08T05:16:05.437Z,62.70
2018-02-08T05:17:05.374Z,60.20
2018-02-08T05:18:05.312Z,62.50
2018-02-08T05:19:05.249Z,66.40
2018-02-08T05:20:05.188Z,64.40
2018-02-08T05:21:05.130Z,61.90
2018-02-08T05:22:05.067Z,63.80
2018-02-08T05:23:05.000Z,62.90
2018-02-08T05:24:04.940Z,64.30
2018-02-08T05:25:04.880Z,63.70
2018-02-08T05:26:04.812Z,62.10
2018-02-08T05:27:04.756Z,66.20
2018-02-08T05:28:04.686Z,70.70
2018-02-08T05:29:04.625Z,71.90
2018-02-08T05:30:04.562Z,66.80
2018-02-08T05:31:04.499Z,65.20
2018-02-08T05:32:04.437Z,66.30
2018-02-08T05:33:04.374Z,67.80
2018-02-08T05:34:04.313Z,63.10
2018-02-08T05:35:04.250Z,64.20
2018-02-08T05:36:04.188Z,61.60
2018-02-08T05:37:04.127Z,67.90
2018-02-08T05:38:04.065Z,64.90
2018-02-08T05:39:04.001Z,63.80
2018-02-08T05:40:03.941Z,64.40
2018-02-08T05:41:03.875Z,69.40
2018-02-08T05:42:03.821Z,65.10
2018-02-08T05:43:03.775Z,63.80
2018-02-08T05:44:03.697Z,65.80
2018-02-08T05:45:03.625Z,65.30
2018-02-08T05:46:03.563Z,66.40
2018-02-08T05:47:03.501Z,64.60
2018-02-08T05:48:03.442Z,68.10
2018-02-08T05:49:03.378Z,62.10
2018-02-08T05:50:03.313Z,66.30
2018-02-08T05:51:03.252Z,67.00
2018-02-08T05:52:03.189Z,66.10
2018-02-08T05:53:03.127Z,67.90
2018-02-08T05:54:03.065Z,66.50
2018-02-08T05:55:03.001Z,68.30
2018-02-08T05:56:02.938Z,65.20
2018-02-08T05:57:02.877Z,65.50
2018-02-08T05:58:02.813Z,64.50
2018-02-08T05:59:02.754Z,66.80
2018-02-08T06:00:02.689Z,67.30
2018-02-08T06:01:02.630Z,69.60
2018-02-08T06:02:02.563Z,64.50
2018-02-08T06:03:02.501Z,63.20
2018-02-08T06:04:02.438Z,63.80
2018-02-08T06:05:02.379Z,68.60
2018-02-08T06:06:02.313Z,71.80
2018-02-08T06:07:02.249Z,66.70
2018-02-08T06:08:02.186Z,67.10
2018-02-08T06:09:02.124Z,67.90
2018-02-08T06:10:02.062Z,65.40
2018-02-08T06:11:01.999Z,69.10
2018-02-08T06:12:01.936Z,66.20
2018-02-08T06:13:01.875Z,69.50
2018-02-08T06:14:01.812Z,73.90
2018-02-08T06:15:01.815Z,72.50
2018-02-08T06:16:01.686Z,72.70
2018-02-08T06:17:01.632Z,68.80
2018-02-08T06:18:01.560Z,64.60
2018-02-08T06:19:01.497Z,67.90
2018-02-08T06:20:01.433Z,68.20
2018-02-08T06:21:01.374Z,66.50
2018-02-08T06:22:01.310Z,66.80
2018-02-08T06:23:01.248Z,64.40
2018-02-08T06:24:01.181Z,70.90
2018-02-08T06:25:01.125Z,63.80
2018-02-08T06:26:01.057Z,66.60
2018-02-08T06:27:00.993Z,67.40
2018-02-08T06:28:00.930Z,64.90
2018-02-08T06:29:00.868Z,71.20
2018-02-08T06:30:00.807Z,70.90
2018-02-08T06:31:00.738Z,70.80
2018-02-08T06:32:00.678Z,65.70
2018-02-08T06:33:00.619Z,68.40
2018-02-08T06:34:00.555Z,65.80
2018-02-08T06:35:00.490Z,67.00
2018-02-08T06:36:00.428Z,65.90
2018-02-08T06:37:00.373Z,70.40
2018-02-08T06:38:00.301Z,69.60
2018-02-08T06:39:00.241Z,70.30
2018-02-08T06:40:00.176Z,66.20
2018-02-08T06:41:00.119Z,68.60
2018-02-08T06:42:00.054Z,69.90
2018-02-08T06:42:59.987Z,69.30
2018-02-08T06:43:59.923Z,70.00
2018-02-08T06:44:59.864Z,68.60
2018-02-08T06:45:59.806Z,68.00
2018-02-08T06:46:59.734Z,67.40
2018-02-08T06:47:59.672Z,63.40
2018-02-08T06:48:59.609Z,69.30
2018-02-08T06:49:59.547Z,66.20
2018-02-08T06:50:59.482Z,69.70
2018-02-08T06:51:59.419Z,70.20
2018-02-08T06:52:59.356Z,69.80
2018-02-08T06:53:59.295Z,65.00
2018-02-08T06:54:59.232Z,67.20
2018-02-08T06:55:59.168Z,65.10
2018-02-08T06:56:59.105Z,66.00
2018-02-08T06:57:59.045Z,67.90
2018-02-08T06:58:58.978Z,68.00
2018-02-08T06:59:58.918Z,62.60
2018-02-08T07:00:58.854Z,70.90
2018-02-08T07:01:58.789Z,67.70
2018-02-08T07:02:58.727Z,64.60
2018-02-08T07:03:58.667Z,67.40
2018-02-08T07:04:58.600Z,66.80
2018-02-08T07:05:58.538Z,66.90
2018-02-08T07:06:58.475Z,66.50
2018-02-08T07:07:58.414Z,65.00
2018-02-08T07:08:58.350Z,63.80
2018-02-08T07:09:58.287Z,67.70
2018-02-08T07:10:58.222Z,67.70
2018-02-08T07:11:58.159Z,66.70
2018-02-08T07:12:58.099Z,65.20
2018-02-08T07:13:58.035Z,68.10
2018-02-08T07:14:57.970Z,71.20
2018-02-08T07:15:57.908Z,70.30
2018-02-08T07:16:57.844Z,65.40
2018-02-08T07:17:57.803Z,65.80
2018-02-08T07:18:57.720Z,71.00
2018-02-08T07:19:57.659Z,69.80
2018-02-08T07:20:57.593Z,68.30
2018-02-08T07:21:57.531Z,70.10
2018-02-08T07:22:57.466Z,66.70
2018-02-08T07:23:57.405Z,68.00
2018-02-08T07:24:57.341Z,68.20
2018-02-08T07:25:57.279Z,66.30
2018-02-08T07:26:57.215Z,63.50
2018-02-08T07:27:57.152Z,66.80
2018-02-08T07:28:57.089Z,66.10
2018-02-08T07:29:57.027Z,66.50
2018-02-08T07:30:56.963Z,67.20
2018-02-08T07:31:56.902Z,68.70
2018-02-08T07:32:56.840Z,68.30
2018-02-08T07:33:56.777Z,68.50
2018-02-08T07:34:56.711Z,68.10
2018-02-08T07:35:56.649Z,65.30
2018-02-08T07:36:56.586Z,69.90
2018-02-08T07:37:56.523Z,70.30
2018-02-08T07:38:56.460Z,72.60
2018-02-08T07:39:56.396Z,69.00
2018-02-08T07:40:56.337Z,70.20
2018-02-08T07:41:56.275Z,72.80
2018-02-08T07:42:56.209Z,77.60
2018-02-08T07:43:56.145Z,76.30
2018-02-08T07:44:56.085Z,73.20
2018-02-08T07:45:56.019Z,73.20
2018-02-08T07:46:55.956Z,76.60
2018-02-08T07:47:55.896Z,69.50
2018-02-08T07:48:55.830Z,67.90
2018-02-08T07:49:55.768Z,76.20
2018-02-08T07:50:55.704Z,70.60
2018-02-08T07:51:55.640Z,72.50
2018-02-08T07:52:55.578Z,70.20
2018-02-08T07:53:55.516Z,75.70
2018-02-08T07:54:55.453Z,70.40
2018-02-08T07:55:55.388Z,70.10
2018-02-08T07:56:55.327Z,73.60
2018-02-08T07:57:55.267Z,74.10
2018-02-08T07:58:55.199Z,68.20
2018-02-08T07:59:55.137Z,70.20
2018-02-08T08:00:55.074Z,71.00
2018-02-08T08:01:55.012Z,68.80
2018-02-08T08:02:54.949Z,72.30
2018-02-08T08:03:54.913Z,78.40
2018-02-08T08:04:54.822Z,74.70
2018-02-08T08:05:54.762Z,69.60
2018-02-08T08:06:54.697Z,72.80
2018-02-08T08:07:54.633Z,73.90
2018-02-08T08:08:54.573Z,74.70
2018-02-08T08:09:54.508Z,71.20
2018-02-08T08:10:54.445Z,73.30
2018-02-08T08:11:54.381Z,76.50
2018-02-08T08:12:54.361Z,77.10
2018-02-08T08:13:54.256Z,76.70
2018-02-08T08:14:54.193Z,75.40
2018-02-08T08:15:54.130Z,73.20
2018-02-08T08:16:54.068Z,72.70
2018-02-08T08:17:54.004Z,73.10
2018-02-08T08:18:53.943Z,74.40
2018-02-08T08:19:53.877Z,81.20
2018-02-08T08:20:53.817Z,72.80
2018-02-08T08:21:53.752Z,77.70
2018-02-08T08:22:53.690Z,71.40
2018-02-08T08:23:53.632Z,71.60
2018-02-08T08:24:53.563Z,71.40
2018-02-08T08:25:53.501Z,72.90
2018-02-08T08:26:53.439Z,71.40
2018-02-08T08:27:53.377Z,77.80
2018-02-08T08:28:53.312Z,69.00
2018-02-08T08:29:53.250Z,68.60
2018-02-08T08:30:53.186Z,76.50
2018-02-08T08:31:53.124Z,75.20
2018-02-08T08:32:53.062Z,74.90
2018-02-08T08:33:53.001Z,73.20
2018-02-08T08:34:52.938Z,77.30
2018-02-08T08:35:52.875Z,79.30
2018-02-08T08:36:52.813Z,74.50
2018-02-08T08:37:52.750Z,76.00
2018-02-08T08:38:52.718Z,75.90
2018-02-08T08:39:52.624Z,73.50
2018-02-08T08:40:52.562Z,76.10
2018-02-08T08:41:52.500Z,76.20
2018-02-08T08:42:52.437Z,77.10
2018-02-08T08:43:52.374Z,73.80
2018-02-08T08:44:52.312Z,66.90
2018-02-08T08:45:52.255Z,70.20
2018-02-08T08:46:52.191Z,70.70
2018-02-08T08:47:52.122Z,66.80
2018-02-08T08:48:52.060Z,73.20
2018-02-08T08:49:52.001Z,70.50
2018-02-08T08:50:51.934Z,70.20
2018-02-08T08:51:51.875Z,72.80
2018-02-08T08:52:51.812Z,66.40
2018-02-08T08:53:51.749Z,70.20
2018-02-08T08:54:51.689Z,69.00
2018-02-08T08:55:51.625Z,75.50
2018-02-08T08:56:51.568Z,76.80
2018-02-08T08:57:51.498Z,71.00
2018-02-08T08:58:51.436Z,68.60
2018-02-08T08:59:51.375Z,65.90
2018-02-08T09:00:51.310Z,71.10
2018-02-08T09:01:51.249Z,70.30
2018-02-08T09:02:51.186Z,70.60
2018-02-08T09:03:51.123Z,68.70
2018-02-08T09:04:51.064Z,67.70
2018-02-08T09:05:50.999Z,73.00
2018-02-08T09:06:50.937Z,65.30
2018-02-08T09:07:50.876Z,64.00
2018-02-08T09:08:50.814Z,68.10
2018-02-08T09:09:50.750Z,66.20
2018-02-08T09:10:50.687Z,64.00
2018-02-08T09:11:50.626Z,69.70
2018-02-08T09:12:50.569Z,64.00
2018-02-08T09:13:50.499Z,66.40
2018-02-08T09:14:50.445Z,68.20
2018-02-08T09:15:50.375Z,69.10
2018-02-08T09:16:50.320Z,67.90
2018-02-08T09:17:50.252Z,66.00
2018-02-08T09:18:50.190Z,64.50
2018-02-08T09:19:50.126Z,63.90
2018-02-08T09:20:50.066Z,66.70
2018-02-08T09:21:50.005Z,64.40
2018-02-08T09:22:49.940Z,63.80
2018-02-08T09:23:49.878Z,71.30
2018-02-08T09:24:49.818Z,68.50
2018-02-08T09:25:49.755Z,75.50
2018-02-08T09:26:49.698Z,61.60
2018-02-08T09:27:49.631Z,65.60
2018-02-08T09:28:49.568Z,62.90
2018-02-08T09:29:49.508Z,62.40
2018-02-08T09:30:49.446Z,61.30
2018-02-08T09:31:49.382Z,61.80
2018-02-08T09:32:49.323Z,63.80
2018-02-08T09:33:49.259Z,63.00
2018-02-08T09:34:49.197Z,60.70
2018-02-08T09:35:49.137Z,61.40
2018-02-08T09:36:49.075Z,59.60
2018-02-08T09:37:49.012Z,59.10
2018-02-08T09:38:48.950Z,59.40
2018-02-08T09:39:48.888Z,63.20
2018-02-08T09:40:48.826Z,62.50
2018-02-08T09:41:48.764Z,64.40
2018-02-08T09:42:48.702Z,60.60
2018-02-08T09:43:48.641Z,59.00
2018-02-08T09:44:48.579Z,66.10
2018-02-08T09:45:48.517Z,58.50
2018-02-08T09:46:48.454Z,61.60
2018-02-08T09:47:48.393Z,69.70
2018-02-08T09:48:48.335Z,59.60
2018-02-08T09:49:48.272Z,63.50
2018-02-08T09:50:48.209Z,65.10
2018-02-08T09:51:48.176Z,62.60
2018-02-08T09:52:48.085Z,60.40
2018-02-08T09:53:48.025Z,60.70
2018-02-08T09:54:47.963Z,59.50
2018-02-08T09:55:47.901Z,65.10
2018-02-08T09:56:47.839Z,60.80
2018-02-08T09:57:47.777Z,62.70
2018-02-08T09:58:47.715Z,61.30
2018-02-08T09:59:47.655Z,61.50
2018-02-08T10:00:47.592Z,62.80
2018-02-08T10:01:47.532Z,64.00
2018-02-08T10:02:47.470Z,62.60
2018-02-08T10:03:47.407Z,64.80
2018-02-08T10:04:47.347Z,61.10
2018-02-08T10:05:47.285Z,66.20
2018-02-08T10:06:47.222Z,68.00
2018-02-08T10:07:47.164Z,66.60
2018-02-08T10:08:47.100Z,63.90
2018-02-08T10:09:47.037Z,63.70
2018-02-08T10:10:46.975Z,63.20
2018-02-08T10:11:46.915Z,65.10
2018-02-08T10:12:46.852Z,66.40
2018-02-08T10:13:46.791Z,63.80
2018-02-08T10:14:46.729Z,62.80
2018-02-08T10:15:46.667Z,64.10
2018-02-08T10:16:46.607Z,60.90
2018-02-08T10:17:46.546Z,62.10
2018-02-08T10:18:46.483Z,62.70
2018-02-08T10:19:46.422Z,65.10
2018-02-08T10:20:46.361Z,64.10
2018-02-08T10:21:46.303Z,59.20
2018-02-08T10:22:46.238Z,64.50
2018-02-08T10:23:46.177Z,64.40
2018-02-08T10:24:46.116Z,62.30
2018-02-08T10:25:46.053Z,63.50
2018-02-08T10:26:45.993Z,60.30
2018-02-08T10:27:45.931Z,63.30
2018-02-08T10:28:45.873Z,60.40
2018-02-08T10:29:45.811Z,64.90
2018-02-08T10:30:45.745Z,63.50
2018-02-08T10:31:45.686Z,60.30
2018-02-08T10:32:45.626Z,62.10
2018-02-08T10:33:45.563Z,58.30
2018-02-08T10:34:45.503Z,66.40
2018-02-08T10:35:45.441Z,72.00
2018-02-08T10:36:45.380Z,62.00
2018-02-08T10:37:45.319Z,66.20
2018-02-08T10:38:45.256Z,63.80
2018-02-08T10:39:45.195Z,62.00
2018-02-08T10:40:45.135Z,59.10
2018-02-08T10:41:45.083Z,60.50
2018-02-08T10:42:45.012Z,58.50
2018-02-08T10:43:44.952Z,58.00
2018-02-08T10:44:44.891Z,57.40
2018-02-08T10:45:44.832Z,59.50
2018-02-08T10:46:44.769Z,58.50
2018-02-08T10:47:44.707Z,59.90
2018-02-08T10:48:44.646Z,58.70
2018-02-08T10:49:44.586Z,57.00
2018-02-08T10:50:44.525Z,58.50
2018-02-08T10:51:44.463Z,60.20
2018-02-08T10:52:44.404Z,60.40
2018-02-08T10:53:44.343Z,63.10
2018-02-08T10:54:44.280Z,63.00
2018-02-08T10:55:44.220Z,54.80
2018-02-08T10:56:44.160Z,57.80
2018-02-08T10:57:44.099Z,56.80
2018-02-08T10:58:44.039Z,55.50
2018-02-08T10:59:43.979Z,57.60
2018-02-08T11:00:43.916Z,58.40
2018-02-08T11:01:43.854Z,57.40
2018-02-08T11:02:43.793Z,58.10
2018-02-08T11:03:43.732Z,58.30
2018-02-08T11:04:43.673Z,58.20
2018-02-08T11:05:43.612Z,59.60
2018-02-08T11:06:43.550Z,54.10
2018-02-08T11:07:43.490Z,56.70
2018-02-08T11:08:43.434Z,58.80
2018-02-08T11:09:43.369Z,58.10
2018-02-08T11:10:43.309Z,59.40
2018-02-08T11:11:43.247Z,57.50
2018-02-08T11:12:43.189Z,56.80
2018-02-08T11:13:43.129Z,56.30
2018-02-08T11:14:43.066Z,58.00
2018-02-08T11:15:43.005Z,54.40
2018-02-08T11:16:42.943Z,56.10
2018-02-08T11:17:42.883Z,55.30
2018-02-08T11:18:42.827Z,59.40
2018-02-08T11:19:42.762Z,57.20
2018-02-08T11:20:42.702Z,54.50
2018-02-08T11:21:42.642Z,59.00
2018-02-08T11:22:42.579Z,54.00
2018-02-08T11:23:42.518Z,55.80
2018-02-08T11:24:42.457Z,57.70
2018-02-08T11:25:42.399Z,57.00
2018-02-08T11:26:42.338Z,56.80
2018-02-08T11:27:42.275Z,53.20
2018-02-08T11:28:42.221Z,55.20
2018-02-08T11:29:42.154Z,54.30
2018-02-08T11:30:42.093Z,60.50
2018-02-08T11:31:42.034Z,58.90
2018-02-08T11:32:41.974Z,55.30
2018-02-08T11:33:41.921Z,53.80
2018-02-08T11:34:41.854Z,58.30
2018-02-08T11:35:41.797Z,56.10
2018-02-08T11:36:41.730Z,53.40
2018-02-08T11:37:41.670Z,54.00
2018-02-08T11:38:41.607Z,54.40
2018-02-08T11:39:41.548Z,55.90
2018-02-08T11:40:41.486Z,56.20
2018-02-08T11:41:41.426Z,55.40
2018-02-08T11:42:41.376Z,61.00
2018-02-08T11:43:41.304Z,52.30
2018-02-08T11:44:41.244Z,52.80
2018-02-08T11:45:41.183Z,53.00
2018-02-08T11:46:41.122Z,54.90
2018-02-08T11:47:41.062Z,51.80
2018-02-08T11:48:41.003Z,56.60
2018-02-08T11:49:40.940Z,55.10
2018-02-08T11:50:40.881Z,55.20
2018-02-08T11:51:40.820Z,51.10
2018-02-08T11:52:40.763Z,51.10
2018-02-08T11:53:40.700Z,54.00
2018-02-08T11:54:40.637Z,55.60
2018-02-08T11:55:40.577Z,59.20
2018-02-08T11:56:40.517Z,49.70
2018-02-08T11:57:40.456Z,53.50
2018-02-08T11:58:40.397Z,51.30
2018-02-08T11:59:40.336Z,52.70
2018-02-08T12:00:40.283Z,54.30
2018-02-08T12:01:40.218Z,54.00
2018-02-08T12:02:40.154Z,54.60
2018-02-08T12:03:40.092Z,56.20
2018-02-08T12:04:40.033Z,55.00
2018-02-08T12:05:39.972Z,54.60
2018-02-08T12:06:39.913Z,55.50
2018-02-08T12:07:39.850Z,51.60
2018-02-08T12:08:39.791Z,50.60
2018-02-08T12:09:39.731Z,49.00
2018-02-08T12:10:39.667Z,53.90
2018-02-08T12:11:39.609Z,53.10
2018-02-08T12:12:39.549Z,55.70
2018-02-08T12:13:39.490Z,53.20
2018-02-08T12:14:39.429Z,52.60
2018-02-08T12:15:39.367Z,54.40
2018-02-08T12:16:39.307Z,52.30
2018-02-08T12:17:39.245Z,56.40
2018-02-08T12:18:39.186Z,56.30
2018-02-08T12:19:39.123Z,50.80
2018-02-08T12:20:39.064Z,52.30
2018-02-08T12:21:39.009Z,52.20
2018-02-08T12:22:38.945Z,51.80
2018-02-08T12:23:38.885Z,51.10
2018-02-08T12:24:38.828Z,53.90
2018-02-08T12:25:38.763Z,51.60
2018-02-08T12:26:38.704Z,57.30
2018-02-08T12:27:38.640Z,54.40
2018-02-08T12:28:38.579Z,52.60
2018-02-08T12:29:38.520Z,53.30
2018-02-08T12:30:38.458Z,51.30
2018-02-08T12:31:38.397Z,49.70
2018-02-08T12:32:38.337Z,50.90
2018-02-08T12:33:38.277Z,48.60
2018-02-08T12:34:38.222Z,52.60
2018-02-08T12:35:38.155Z,49.70
2018-02-08T12:36:38.096Z,51.50
2018-02-08T12:37:38.034Z,52.30
2018-02-08T12:38:37.975Z,47.30
2018-02-08T12:39:37.911Z,56.60
2018-02-08T12:40:37.853Z,49.90
2018-02-08T12:41:37.797Z,53.60
2018-02-08T12:42:37.733Z,54.30
2018-02-08T12:43:37.694Z,51.90
2018-02-08T12:44:37.611Z,50.40
2018-02-08T12:45:37.555Z,50.60
2018-02-08T12:46:37.494Z,50.90
2018-02-08T12:47:37.433Z,50.80
2018-02-08T12:48:37.374Z,50.10
2018-02-08T12:49:37.312Z,49.80
2018-02-08T12:50:37.253Z,48.80
2018-02-08T12:51:37.193Z,48.40